Salitral, Costa Rica

11:20 AM CST on September 01, 2015 (GMT -0600)
Pozos de Santa Ana | | Change Station
CLOSE
Current Station
Personal Weather Station
Location: San Josť, SAN JOSť
Elevation: 2825 ft
Nearby Weather Stations

Elev 2825 ft 9.96 °N, 84.19 °W | Updated 35 seconds ago

Mostly Cloudy
Mostly Cloudy
80.8 °F
Feels Like 83 °F
N
7.6
Wind Variable Wind from NE
Gusts 12.3 mph

Today
High -- | Low -- °F
--% Chance of Precip.
Yesterday
High -- | Low -- °F
Precip. -- in
5:27 AM 5:45 PM
Waning Gibbous, 87% visible
Pressure 30.08 in
Visibility 6.2 miles
Clouds Scattered Clouds 4000 ft
Mostly Cloudy 20000 ft
Heat Index 83 °F
Dew Point 65 °F
Humidity 58%
Rainfall 0.00 in
Snow Depth Not available.
UV 4.0 out of 12
Pollen Not available.
Air Quality Not available.
Flu Activity Not available.
METAR MRPV 011700Z 11011KT 9999 SCT040 BKN200 25/17 A3008 NOSIG
Pressure 30.08 in
Visibility 6.2 miles
Clouds Scattered Clouds 4000 ft
Mostly Cloudy 20000 ft
Heat Index 83 °F
Dew Point 65 °F
Humidity 58%
Rainfall 0.00 in
Snow Depth Not available.
UV 4.0 out of 12
Pollen Not available.
Air Quality Not available.
Flu Activity Not available.
METAR MRPV 011700Z 11011KT 9999 SCT040 BKN200 25/17 A3008 NOSIG

10-Day Weather Forecast

×

Almanac

Astronomy

Sep. 01, 2015 Rise Set
Actual Time
Civil Twilight
Nautical Twilight
Astronomical Twilight
Moon
Length of Visible Light
Length of Day
Tomorrow will be .
, % of the Moon is Illuminated

Today's Extremes

Country Highs Country Lows

Community

WunderPhotos

Upload Photos

1,851,567 photos uploaded!

WunderBlogs® & News

Nearby

Air Quality

  Air Quality AQ Index Pollutant
Not available.

Snow Depth

Station Depth Elevation

Earthquake Activity

City Distance Mag. Time & Date
Minimum magnitude displayed is 2.5.

Coastal Water Temperatures

Place Temperature

Stations

Nearby Weather Stations

Station Location Temp. Windchill Dew Point Humidity Wind Precip. Elev Updated Type